Time;durP1;ratioP1;P1;durP2;ratioP2;P2;SDS_P1;SDS_P2;PMS_P1;PMS_P2;Temp;Humidity;BMP_temperature;BMP_pressure;BME280_temperature;BME280_humidity;BME280_pressure;Samples;Min_cycle;Max_cycle;Signal;HPM_P1;HPM_P2
2022/05/28 00:01:38;;;;;;;7.60;5.33;;;25.60;52.70;;;;;;5027393;28;20191;-86
2022/05/28 00:04:05;;;;;;;8.73;6.40;;;25.50;52.70;;;;;;5027566;28;20647;-86
2022/05/28 00:06:32;;;;;;;9.33;5.37;;;25.60;52.80;;;;;;5028158;28;20446;-87
2022/05/28 00:08:59;;;;;;;8.03;5.67;;;25.60;52.70;;;;;;5027588;28;20474;-86
2022/05/28 00:11:28;;;;;;;8.77;5.53;;;25.60;52.70;;;;;;5029051;28;20902;-87
2022/05/28 00:13:54;;;;;;;7.07;4.80;;;25.60;52.80;;;;;;5027181;28;20996;-86
2022/05/28 00:16:21;;;;;;;10.53;6.03;;;25.60;52.80;;;;;;5027603;28;20427;-87
2022/05/28 00:18:49;;;;;;;8.83;5.63;;;25.60;52.70;;;;;;5027527;28;20414;-86
2022/05/28 00:21:15;;;;;;;9.80;5.57;;;25.60;52.70;;;;;;5027747;28;20438;-87
2022/05/28 00:23:44;;;;;;;8.87;4.87;;;25.60;52.80;;;;;;5028291;28;20486;-87
2022/05/28 00:26:10;;;;;;;7.80;5.90;;;25.60;52.80;;;;;;5028040;28;20411;-86
2022/05/28 00:28:45;;;;;;;7.63;5.37;;;25.60;52.70;;;;;;5026841;28;20506;-86
2022/05/28 00:31:11;;;;;;;9.57;4.90;;;25.60;52.80;;;;;;5026683;28;20497;-86
2022/05/28 00:33:37;;;;;;;9.77;5.40;;;25.60;52.80;;;;;;5027996;28;20459;-86
2022/05/28 00:36:08;;;;;;;10.83;5.73;;;25.50;52.70;;;;;;5027365;28;20438;-86
2022/05/28 00:38:34;;;;;;;9.77;6.30;;;25.60;52.80;;;;;;5026428;28;20204;-86
2022/05/28 00:41:00;;;;;;;7.83;5.13;;;25.60;52.80;;;;;;5027927;28;20419;-86
2022/05/28 00:43:27;;;;;;;6.53;5.50;;;25.50;52.70;;;;;;5028031;28;20403;-87
2022/05/28 00:46:05;;;;;;;11.00;5.50;;;25.50;53.30;;;;;;5026394;28;20184;-86
2022/05/28 00:48:34;;;;;;;8.40;6.07;;;25.50;52.70;;;;;;5026461;28;20465;-87
2022/05/28 00:51:14;;;;;;;10.43;5.30;;;25.50;52.80;;;;;;5027233;28;20457;-87
2022/05/28 00:53:40;;;;;;;8.93;5.40;;;25.50;52.80;;;;;;5027194;28;20447;-87
2022/05/28 00:56:07;;;;;;;5.87;4.87;;;25.50;52.80;;;;;;5025204;28;20423;-86
2022/05/28 00:58:33;;;;;;;6.20;4.73;;;25.50;53.40;;;;;;5041870;28;20431;-86
2022/05/28 01:00:59;;;;;;;6.00;4.83;;;25.50;52.80;;;;;;5027471;28;20931;-86
2022/05/28 01:03:51;;;;;;;7.00;4.87;;;25.50;52.80;;;;;;5025911;28;20423;-86
2022/05/28 01:06:42;;;;;;;7.10;4.83;;;25.50;52.80;;;;;;5027113;28;20415;-86
2022/05/28 01:09:16;;;;;;;7.57;4.97;;;25.50;52.80;;;;;;4999760;28;20442;-86
2022/05/28 01:11:49;;;;;;;8.20;5.10;;;25.50;52.80;;;;;;5025803;28;20427;-86
2022/05/28 01:14:28;;;;;;;10.20;5.63;;;25.50;52.80;;;;;;5040516;28;20416;-86
2022/05/28 01:16:58;;;;;;;7.47;4.93;;;25.50;52.80;;;;;;5027338;28;20442;-86
2022/05/28 01:19:53;;;;;;;6.90;4.70;;;25.50;52.80;;;;;;5018779;28;20430;-86
2022/05/28 01:22:31;;;;;;;8.10;4.70;;;25.50;52.80;;;;;;5006267;28;20774;-86
2022/05/28 01:25:15;;;;;;;6.10;4.60;;;25.50;52.80;;;;;;5008338;28;20432;-86
2022/05/28 01:27:51;;;;;;;6.73;5.07;;;25.50;52.80;;;;;;5023266;28;20420;-86
2022/05/28 01:30:18;;;;;;;7.60;4.60;;;25.50;52.80;;;;;;5006506;28;20419;-86
2022/05/28 01:32:49;;;;;;;6.80;5.07;;;25.50;52.80;;;;;;5007875;28;20458;-86
2022/05/28 01:35:17;;;;;;;6.23;4.27;;;25.50;52.90;;;;;;5022846;28;20977;-86
2022/05/28 01:37:45;;;;;;;6.50;4.40;;;25.50;52.80;;;;;;5022264;28;20422;-86
2022/05/28 01:40:11;;;;;;;6.90;4.60;;;25.50;52.80;;;;;;5007120;28;20755;-86
2022/05/28 01:42:42;;;;;;;6.90;4.63;;;25.50;52.80;;;;;;5007469;28;20439;-86
2022/05/28 01:45:10;;;;;;;6.87;4.67;;;25.50;52.80;;;;;;5006873;28;20475;-86
2022/05/28 01:47:39;;;;;;;7.80;4.37;;;25.50;52.80;;;;;;5006942;28;20420;-87
2022/05/28 01:50:07;;;;;;;6.17;4.60;;;25.50;52.80;;;;;;5022318;28;20427;-87
2022/05/28 01:52:33;;;;;;;5.80;4.80;;;25.50;52.80;;;;;;5006728;28;20499;-86
2022/05/28 01:55:01;;;;;;;5.47;4.30;;;25.50;52.80;;;;;;5007582;28;20412;-86
2022/05/28 01:57:27;;;;;;;7.57;4.93;;;25.50;52.80;;;;;;5005731;28;20435;-86
2022/05/28 01:59:53;;;;;;;7.40;4.73;;;25.50;52.80;;;;;;5021726;28;20487;-86
2022/05/28 02:02:19;;;;;;;5.83;4.40;;;25.50;52.80;;;;;;5022122;28;20191;-86
2022/05/28 02:04:47;;;;;;;6.53;5.53;;;25.50;52.80;;;;;;5021689;28;20428;-86
2022/05/28 02:07:15;;;;;;;5.60;4.30;;;25.50;52.80;;;;;;5006973;28;20408;-86
2022/05/28 02:09:59;;;;;;;6.23;4.57;;;25.50;52.80;;;;;;5006662;28;20416;-86
2022/05/28 02:12:40;;;;;;;5.43;4.07;;;25.50;52.80;;;;;;5021511;28;20459;-86
2022/05/28 02:15:34;;;;;;;5.73;4.50;;;25.50;52.80;;;;;;5023233;28;20428;-86
2022/05/28 02:18:23;;;;;;;5.67;4.43;;;25.50;52.80;;;;;;5005890;28;20504;-86
2022/05/28 02:21:10;;;;;;;6.03;4.40;;;25.50;52.80;;;;;;5006337;28;20396;-87
2022/05/28 02:23:36;;;;;;;5.50;4.30;;;25.50;52.80;;;;;;5005879;28;20415;-85
2022/05/28 02:29:25;;;;;;;6.17;4.50;;;25.50;52.80;;;;;;5006083;28;20380;-86
2022/05/28 02:31:51;;;;;;;6.37;4.43;;;25.50;52.90;;;;;;5005378;28;20416;-86
2022/05/28 02:34:19;;;;;;;6.97;4.37;;;25.50;52.90;;;;;;5004493;28;20451;-86
2022/05/28 02:36:45;;;;;;;4.57;3.60;;;25.50;52.90;;;;;;5004917;28;20208;-86
2022/05/28 02:42:32;;;;;;;5.17;4.00;;;25.50;52.80;;;;;;5010388;28;20407;-86
2022/05/28 02:44:59;;;;;;;6.30;5.40;;;25.50;52.90;;;;;;5010900;28;20404;-87
2022/05/28 02:47:25;;;;;;;5.30;4.00;;;25.50;52.90;;;;;;5009358;28;20278;-87
2022/05/28 02:49:53;;;;;;;6.27;4.37;;;25.50;52.90;;;;;;5025540;28;20934;-87
2022/05/28 02:52:19;;;;;;;4.80;4.10;;;25.50;52.80;;;;;;5008939;28;20212;-86
2022/05/28 02:54:45;;;;;;;5.60;4.17;;;25.50;52.80;;;;;;5010589;28;20414;-86
2022/05/28 02:57:10;;;;;;;7.37;4.03;;;25.50;52.80;;;;;;5009608;28;20177;-87
2022/05/28 02:59:36;;;;;;;6.80;4.47;;;25.50;52.80;;;;;;5010751;28;20176;-86
2022/05/28 03:02:02;;;;;;;4.10;3.70;;;25.50;52.80;;;;;;5009330;28;20173;-86
2022/05/28 03:04:29;;;;;;;6.10;4.37;;;25.50;52.80;;;;;;5010472;28;20237;-86
2022/05/28 03:06:55;;;;;;;6.90;4.63;;;25.50;52.80;;;;;;5041942;28;20467;-86
2022/05/28 03:09:21;;;;;;;5.13;3.90;;;25.50;52.90;;;;;;5008373;28;20902;-87
2022/05/28 03:11:47;;;;;;;6.80;4.27;;;25.50;52.80;;;;;;5010718;28;20408;-86
2022/05/28 03:14:12;;;;;;;4.43;3.50;;;25.50;52.80;;;;;;5022939;28;20509;-86
2022/05/28 03:16:38;;;;;;;6.60;4.57;;;25.50;52.80;;;;;;5028639;28;20196;-86
2022/05/28 03:19:04;;;;;;;6.03;4.40;;;25.50;52.80;;;;;;5029633;28;20212;-86
2022/05/28 03:21:31;;;;;;;5.30;4.53;;;25.50;52.80;;;;;;5029323;28;20407;-86
2022/05/28 03:23:57;;;;;;;6.47;3.50;;;25.50;52.80;;;;;;5045271;28;20272;-86
2022/05/28 03:26:27;;;;;;;6.50;4.10;;;25.50;52.80;;;;;;5029328;28;20407;-86
2022/05/28 03:28:56;;;;;;;5.83;3.80;;;25.50;52.80;;;;;;5027973;28;20467;-86
2022/05/28 03:31:23;;;;;;;4.40;3.67;;;25.40;52.70;;;;;;5028961;28;20482;-86
2022/05/28 03:33:50;;;;;;;4.60;3.50;;;25.40;52.80;;;;;;5029346;28;20810;-86
2022/05/28 03:36:16;;;;;;;7.70;4.10;;;25.50;52.80;;;;;;5028955;28;20411;-86
2022/05/28 03:38:43;;;;;;;5.33;4.10;;;25.50;52.90;;;;;;5027139;28;20422;-86
2022/05/28 03:41:08;;;;;;;4.70;4.20;;;25.50;52.80;;;;;;5028738;28;20461;-86
2022/05/28 03:43:34;;;;;;;5.43;3.40;;;25.50;52.80;;;;;;5027918;28;20826;-86
2022/05/28 03:46:00;;;;;;;5.77;4.10;;;25.50;52.80;;;;;;5028916;28;20177;-86
2022/05/28 03:48:26;;;;;;;8.27;5.47;;;25.50;52.80;;;;;;5024377;28;20248;-86
2022/05/28 03:50:52;;;;;;;6.27;3.73;;;25.50;52.80;;;;;;5009699;28;20303;-86
2022/05/28 03:53:18;;;;;;;6.70;4.37;;;25.40;52.80;;;;;;5008086;28;20804;-86
2022/05/28 03:55:44;;;;;;;5.80;3.77;;;25.40;52.80;;;;;;5008023;28;20499;-86
2022/05/28 03:58:10;;;;;;;4.80;3.60;;;25.50;52.90;;;;;;5007831;28;20183;-86
2022/05/28 04:00:36;;;;;;;4.80;3.47;;;25.40;52.80;;;;;;5009387;28;20925;-86
2022/05/28 04:03:03;;;;;;;7.37;3.90;;;25.40;52.80;;;;;;5007174;28;20424;-86
2022/05/28 04:05:29;;;;;;;5.57;4.63;;;25.40;52.80;;;;;;5008410;28;20428;-86
2022/05/28 04:07:55;;;;;;;5.33;3.30;;;25.50;52.90;;;;;;5008271;28;20479;-86
2022/05/28 04:10:20;;;;;;;5.13;3.80;;;25.50;52.90;;;;;;5008950;28;20412;-86
2022/05/28 04:12:46;;;;;;;4.57;3.77;;;25.40;52.80;;;;;;5032694;28;20215;-86
2022/05/28 04:15:13;;;;;;;7.77;4.20;;;25.50;52.90;;;;;;5027957;28;20427;-86
2022/05/28 04:17:39;;;;;;;6.20;4.10;;;25.50;52.90;;;;;;5027705;28;20275;-86
2022/05/28 04:20:07;;;;;;;6.70;4.10;;;25.50;52.90;;;;;;5027894;28;20426;-86
2022/05/28 04:22:33;;;;;;;5.30;3.57;;;25.50;52.80;;;;;;5028936;28;20427;-86
2022/05/28 04:24:59;;;;;;;7.03;3.77;;;25.50;52.90;;;;;;5028737;28;20407;-86
2022/05/28 04:27:25;;;;;;;5.03;4.27;;;25.50;52.80;;;;;;5027858;28;20433;-86
2022/05/28 04:29:51;;;;;;;5.83;5.20;;;25.50;52.80;;;;;;5024498;28;20193;-86
2022/05/28 04:32:17;;;;;;;4.67;3.47;;;25.50;52.80;;;;;;5010542;28;20467;-86
2022/05/28 04:34:43;;;;;;;5.60;4.00;;;25.50;52.80;;;;;;5013124;28;20180;-85
2022/05/28 04:37:08;;;;;;;5.40;4.03;;;25.50;52.90;;;;;;5027811;28;20419;-86
2022/05/28 04:39:34;;;;;;;4.57;3.37;;;25.60;52.80;;;;;;5011765;28;20194;-86
2022/05/28 04:42:00;;;;;;;4.47;3.40;;;25.50;52.80;;;;;;5028387;28;20246;-86
2022/05/28 04:44:26;;;;;;;3.90;2.87;;;25.50;52.70;;;;;;5028180;28;20230;-85
2022/05/28 04:47:01;;;;;;;4.43;3.20;;;25.50;52.70;;;;;;5028418;28;20180;-85
2022/05/28 04:49:27;;;;;;;4.57;3.20;;;25.60;52.80;;;;;;5027797;28;20184;-85
2022/05/28 04:51:53;;;;;;;3.93;2.97;;;25.50;52.70;;;;;;5028206;28;20498;-85
2022/05/28 04:54:19;;;;;;;4.90;3.90;;;25.60;52.80;;;;;;5031789;28;20910;-85
2022/05/28 04:56:45;;;;;;;4.90;3.27;;;25.50;52.70;;;;;;5032150;28;20187;-85
2022/05/28 04:59:11;;;;;;;4.07;3.47;;;25.60;52.80;;;;;;5029546;28;20183;-85
2022/05/28 05:01:36;;;;;;;4.50;3.37;;;25.60;52.70;;;;;;5027387;28;20510;-85
2022/05/28 05:04:03;;;;;;;4.23;2.90;;;25.60;52.80;;;;;;5038686;28;20426;-85
2022/05/28 05:09:51;;;;;;;4.47;3.27;;;25.60;52.70;;;;;;5034726;28;20382;-85
2022/05/28 05:12:17;;;;;;;3.03;2.67;;;25.60;52.80;;;;;;5026517;28;20455;-85
2022/05/28 05:14:42;;;;;;;3.47;3.00;;;25.60;52.80;;;;;;5030340;28;20422;-86
2022/05/28 05:20:30;;;;;;;5.90;3.80;;;25.60;52.70;;;;;;5026546;28;20223;-86
2022/05/28 05:22:57;;;;;;;4.10;3.17;;;25.60;52.80;;;;;;5027591;28;20426;-87
2022/05/28 05:25:23;;;;;;;5.63;3.50;;;25.60;52.70;;;;;;5031359;28;20411;-86
2022/05/28 05:27:49;;;;;;;2.87;2.57;;;25.60;52.70;;;;;;5053290;28;20473;-86
2022/05/28 05:30:15;;;;;;;3.00;2.50;;;25.60;52.70;;;;;;5025832;28;20454;-85
2022/05/28 05:32:41;;;;;;;4.60;3.17;;;25.60;53.20;;;;;;5027052;28;20466;-86
2022/05/28 05:35:08;;;;;;;5.50;3.03;;;25.60;52.70;;;;;;5026838;28;20437;-85
2022/05/28 05:37:33;;;;;;;6.20;3.00;;;25.60;52.70;;;;;;5031369;28;20184;-86
2022/05/28 05:39:59;;;;;;;5.80;2.90;;;25.60;52.70;;;;;;5025623;28;20459;-86
2022/05/28 05:42:25;;;;;;;3.50;2.90;;;25.60;52.60;;;;;;5029109;28;20197;-85
2022/05/28 05:44:51;;;;;;;3.50;3.10;;;25.60;52.60;;;;;;5018022;28;20291;-85
2022/05/28 05:47:16;;;;;;;5.63;2.87;;;25.60;52.70;;;;;;5022935;28;20188;-85
2022/05/28 05:49:44;;;;;;;3.60;2.90;;;25.60;52.60;;;;;;5024130;28;20223;-87
2022/05/28 05:52:10;;;;;;;3.90;3.07;;;25.60;52.60;;;;;;5021315;28;20180;-86
2022/05/28 05:54:36;;;;;;;3.77;2.60;;;25.60;52.60;;;;;;5024554;28;20781;-86
2022/05/28 05:57:02;;;;;;;3.83;2.60;;;25.60;52.60;;;;;;5026335;28;20180;-86
2022/05/28 05:59:28;;;;;;;4.53;2.83;;;25.60;52.50;;;;;;5023872;28;20427;-86
2022/05/28 06:01:56;;;;;;;3.90;2.43;;;25.60;52.50;;;;;;5025331;28;20517;-86
2022/05/28 06:04:22;;;;;;;3.70;2.20;;;25.60;52.50;;;;;;5022733;28;20191;-86
2022/05/28 06:06:48;;;;;;;2.20;2.00;;;25.60;52.30;;;;;;5025046;28;20447;-85
2022/05/28 06:09:14;;;;;;;3.63;2.00;;;25.60;52.10;;;;;;5025155;28;20204;-86
2022/05/28 06:11:40;;;;;;;5.20;3.00;;;25.60;52.10;;;;;;5024919;28;20443;-85
2022/05/28 06:14:05;;;;;;;4.70;2.67;;;25.60;52.00;;;;;;5025768;28;20458;-86
2022/05/28 06:16:31;;;;;;;3.87;2.33;;;25.60;51.90;;;;;;5040419;28;20275;-85
2022/05/28 06:18:57;;;;;;;3.70;2.23;;;25.60;51.90;;;;;;5024492;28;20192;-86
2022/05/28 06:21:25;;;;;;;3.43;2.17;;;25.50;51.70;;;;;;5025328;28;20453;-85
2022/05/28 06:23:50;;;;;;;3.60;2.10;;;25.50;52.20;;;;;;5033100;28;20180;-86
2022/05/28 06:26:16;;;;;;;3.83;2.10;;;25.50;51.60;;;;;;5058104;28;20449;-85
2022/05/28 06:28:42;;;;;;;3.40;2.20;;;25.50;51.60;;;;;;5026083;28;20187;-86
2022/05/28 06:31:11;;;;;;;4.07;2.40;;;25.50;51.60;;;;;;5020707;28;20240;-86
2022/05/28 06:33:38;;;;;;;4.07;2.03;;;25.50;51.50;;;;;;5015476;28;20208;-86
2022/05/28 06:36:06;;;;;;;3.03;2.00;;;25.50;51.60;;;;;;5005487;28;20428;-86
2022/05/28 06:38:32;;;;;;;3.33;2.00;;;25.50;51.80;;;;;;5006018;28;20416;-86
2022/05/28 06:40:59;;;;;;;3.40;2.10;;;25.50;51.90;;;;;;5006572;28;20419;-85
2022/05/28 06:43:28;;;;;;;3.30;2.63;;;25.50;51.90;;;;;;5007005;28;20427;-85
2022/05/28 06:45:54;;;;;;;2.13;1.90;;;25.50;51.90;;;;;;5006082;28;20419;-85
2022/05/28 06:48:20;;;;;;;3.03;2.13;;;25.50;51.90;;;;;;5004789;28;20447;-85
2022/05/28 06:51:01;;;;;;;3.20;2.20;;;25.50;51.90;;;;;;5005200;28;20223;-86
2022/05/28 06:53:29;;;;;;;3.40;1.80;;;25.50;51.90;;;;;;5005241;28;20460;-85
2022/05/28 06:55:54;;;;;;;3.33;1.70;;;25.50;51.90;;;;;;5006187;28;20408;-86
2022/05/28 06:58:20;;;;;;;2.53;1.77;;;25.50;51.90;;;;;;4988642;28;20563;-86
2022/05/28 07:00:46;;;;;;;2.67;1.60;;;25.50;51.90;;;;;;5005568;28;20491;-85
2022/05/28 07:03:14;;;;;;;2.83;1.60;;;25.50;51.90;;;;;;5006039;28;20514;-87
2022/05/28 07:05:40;;;;;;;3.30;1.77;;;25.50;51.80;;;;;;5006801;28;20172;-87
2022/05/28 07:08:06;;;;;;;2.37;1.50;;;25.50;51.60;;;;;;5005306;28;20840;-86
2022/05/28 07:10:32;;;;;;;3.23;1.90;;;25.50;52.10;;;;;;5006103;28;20443;-87
2022/05/28 07:12:57;;;;;;;2.07;1.80;;;25.50;51.50;;;;;;5006051;28;20208;-87
2022/05/28 07:15:24;;;;;;;2.47;1.30;;;25.50;51.40;;;;;;5005875;28;20181;-87
2022/05/28 07:17:50;;;;;;;2.90;2.10;;;25.50;51.40;;;;;;5005457;28;20173;-86
2022/05/28 07:20:16;;;;;;;3.43;1.77;;;25.50;51.30;;;;;;5004851;28;20427;-86
2022/05/28 07:22:41;;;;;;;3.27;1.50;;;25.40;51.20;;;;;;5005427;28;20447;-86
2022/05/28 07:25:09;;;;;;;2.07;1.70;;;25.40;51.20;;;;;;5005583;28;20197;-86
2022/05/28 07:27:35;;;;;;;2.27;1.33;;;25.40;51.20;;;;;;5007256;28;20181;-87
2022/05/28 07:30:01;;;;;;;2.70;1.80;;;25.40;51.10;;;;;;5010279;28;20470;-85
2022/05/28 07:32:30;;;;;;;2.83;1.63;;;25.40;51.10;;;;;;5008894;28;20467;-86
2022/05/28 07:34:57;;;;;;;2.47;1.60;;;25.40;51.00;;;;;;5009321;28;20793;-86
2022/05/28 07:37:24;;;;;;;2.93;2.27;;;25.40;51.20;;;;;;5024896;28;20420;-85
2022/05/28 07:39:50;;;;;;;3.43;2.00;;;25.40;51.30;;;;;;5009384;28;20543;-85
2022/05/28 07:42:15;;;;;;;2.70;1.73;;;25.40;51.40;;;;;;5008181;28;20475;-87
2022/05/28 07:44:41;;;;;;;3.67;1.83;;;25.40;51.50;;;;;;5007609;28;20181;-87
2022/05/28 07:47:08;;;;;;;4.23;1.77;;;25.40;51.40;;;;;;5007226;28;20203;-88
2022/05/28 07:49:37;;;;;;;1.90;1.40;;;25.40;50.70;;;;;;5008775;28;20177;-87
2022/05/28 07:52:04;;;;;;;2.47;1.37;;;25.40;50.70;;;;;;5023641;28;20422;-87
2022/05/28 07:54:30;;;;;;;2.10;1.90;;;25.40;50.90;;;;;;5007168;28;20420;-87
2022/05/28 07:56:56;;;;;;;3.10;1.40;;;25.40;51.00;;;;;;5007579;28;20430;-86
2022/05/28 07:59:22;;;;;;;3.03;1.37;;;25.40;51.10;;;;;;5008348;28;20444;-86
2022/05/28 08:01:48;;;;;;;3.00;1.80;;;25.40;51.20;;;;;;5010864;28;20199;-86
2022/05/28 08:04:17;;;;;;;3.90;1.70;;;25.40;51.20;;;;;;5024982;28;20416;-86
2022/05/28 08:07:03;;;;;;;2.10;1.30;;;25.40;51.20;;;;;;5017473;28;20391;-86
2022/05/28 08:09:29;;;;;;;2.00;1.20;;;25.40;51.10;;;;;;5027999;28;20415;-87
2022/05/28 08:11:55;;;;;;;3.60;1.80;;;25.40;51.10;;;;;;5027864;28;20430;-87
2022/05/28 08:14:22;;;;;;;2.63;1.83;;;25.40;51.10;;;;;;5027928;28;20463;-86
2022/05/28 08:16:48;;;;;;;1.70;1.40;;;25.40;51.10;;;;;;5028749;28;20177;-86
2022/05/28 08:19:14;;;;;;;2.33;1.60;;;25.40;51.10;;;;;;5027991;28;20438;-86
2022/05/28 08:24:27;;;;;;;2.00;1.40;;;25.40;51.20;;;;;;5034335;28;20399;-87
2022/05/28 08:27:01;;;;;;;2.80;1.60;;;25.40;51.20;;;;;;5030550;28;20424;-87
2022/05/28 08:29:27;;;;;;;2.27;1.63;;;25.40;51.20;;;;;;5030172;28;20183;-87
2022/05/28 08:31:53;;;;;;;1.60;1.50;;;25.40;51.20;;;;;;5030641;28;20416;-87
2022/05/28 08:34:19;;;;;;;1.83;1.30;;;25.40;51.20;;;;;;5029981;28;20458;-87
2022/05/28 08:36:52;;;;;;;2.30;1.90;;;25.40;51.20;;;;;;5028620;28;20188;-87
2022/05/28 08:39:21;;;;;;;4.00;1.27;;;25.40;51.20;;;;;;5044478;28;20207;-87
2022/05/28 08:42:00;;;;;;;2.93;1.63;;;25.40;51.10;;;;;;5028937;28;20416;-88
2022/05/28 08:44:29;;;;;;;3.87;1.73;;;25.40;51.00;;;;;;5030315;28;20388;-87
2022/05/28 08:47:13;;;;;;;7.67;3.13;;;25.30;51.00;;;;;;5029135;28;20895;-87
2022/05/28 08:49:39;;;;;;;3.70;1.70;;;25.40;51.10;;;;;;5027651;28;20412;-87
2022/05/28 08:52:11;;;;;;;2.37;2.00;;;25.40;51.00;;;;;;5028196;28;20856;-89
2022/05/28 08:54:41;;;;;;;6.03;2.40;;;25.40;51.10;;;;;;5030654;28;20179;-87
2022/05/28 08:57:18;;;;;;;2.47;1.40;;;25.40;51.00;;;;;;5029940;28;20412;-87
2022/05/28 08:59:58;;;;;;;3.23;2.17;;;25.40;51.00;;;;;;5029454;28;20482;-87
2022/05/28 09:02:54;;;;;;;3.63;1.60;;;25.40;51.00;;;;;;5033564;28;20459;-87
2022/05/28 09:05:28;;;;;;;3.30;1.70;;;25.40;51.00;;;;;;5015982;28;20464;-86
2022/05/28 09:08:11;;;;;;;2.60;1.40;;;25.40;51.10;;;;;;5041872;28;20503;-88
2022/05/28 09:10:50;;;;;;;3.40;1.60;;;25.40;51.10;;;;;;5028072;28;20419;-88
2022/05/28 09:13:40;;;;;;;5.80;1.83;;;25.40;51.10;;;;;;5027191;28;20454;-88
2022/05/28 09:16:10;;;;;;;2.10;1.53;;;25.40;51.00;;;;;;5041845;28;20437;-87
2022/05/28 09:18:44;;;;;;;3.00;1.63;;;25.40;51.10;;;;;;5020785;28;20422;-87
2022/05/28 09:21:18;;;;;;;4.37;1.60;;;25.40;51.10;;;;;;5026298;28;20438;-87
2022/05/28 09:23:48;;;;;;;2.03;1.10;;;25.40;51.10;;;;;;5024007;28;20428;-87
2022/05/28 09:26:22;;;;;;;2.73;1.57;;;25.40;51.10;;;;;;5024429;28;20902;-87
2022/05/28 09:29:04;;;;;;;3.93;1.40;;;25.40;51.10;;;;;;5027229;28;20890;-86
2022/05/28 09:31:48;;;;;;;4.10;1.73;;;25.40;51.10;;;;;;5024572;28;20431;-85
2022/05/28 09:34:28;;;;;;;3.00;1.70;;;25.40;51.10;;;;;;5036478;28;20813;-87
2022/05/28 09:37:27;;;;;;;4.00;1.70;;;25.40;51.10;;;;;;5038998;28;20423;-87
2022/05/28 09:40:14;;;;;;;1.90;1.30;;;25.40;51.20;;;;;;5020917;28;20426;-87
2022/05/28 09:43:08;;;;;;;2.07;1.37;;;25.40;51.20;;;;;;5019895;28;20446;-85
2022/05/28 09:46:01;;;;;;;3.23;1.40;;;25.40;51.20;;;;;;5051888;28;20431;-85
2022/05/28 09:48:30;;;;;;;4.47;2.00;;;25.40;51.20;;;;;;5023505;28;20450;-87
2022/05/28 09:50:56;;;;;;;3.73;1.30;;;25.40;51.30;;;;;;5024802;28;20426;-87
2022/05/28 09:56:25;;;;;;;2.50;1.53;;;25.40;51.20;;;;;;5025398;28;20195;-86
2022/05/28 09:58:50;;;;;;;3.63;1.30;;;25.40;51.30;;;;;;5025302;28;20462;-85
2022/05/28 10:01:25;;;;;;;6.10;1.90;;;25.40;51.30;;;;;;5025762;28;20420;-87
2022/05/28 10:07:00;;;;;;;2.30;1.50;;;25.40;51.30;;;;;;5028337;28;20757;-87
2022/05/28 10:09:50;;;;;;;3.00;1.37;;;25.40;51.30;;;;;;5025939;28;20494;-87
2022/05/28 10:12:23;;;;;;;3.97;1.70;;;25.40;51.30;;;;;;5056182;28;20430;-88
2022/05/28 10:15:31;;;;;;;2.70;1.43;;;25.40;51.30;;;;;;5040637;28;20434;-86
2022/05/28 10:18:04;;;;;;;2.33;1.70;;;25.40;51.30;;;;;;5006730;28;20423;-88
2022/05/28 10:20:30;;;;;;;2.00;1.33;;;25.40;51.30;;;;;;5026413;28;20479;-89
2022/05/28 10:23:01;;;;;;;2.33;1.23;;;25.40;51.90;;;;;;5028236;28;20415;-88
2022/05/28 10:25:48;;;;;;;2.13;1.47;;;25.40;51.30;;;;;;5025071;28;20458;-88
2022/05/28 10:28:29;;;;;;;2.30;1.23;;;25.50;51.40;;;;;;5026130;28;20951;-86
2022/05/28 10:30:55;;;;;;;2.03;1.53;;;25.40;51.30;;;;;;5012906;28;20408;-86
2022/05/28 10:33:24;;;;;;;2.30;1.20;;;25.40;51.30;;;;;;5023860;28;20481;-85
2022/05/28 10:35:53;;;;;;;3.10;1.20;;;25.40;51.30;;;;;;5025009;28;20790;-86
2022/05/28 10:38:24;;;;;;;1.53;1.10;;;25.40;51.30;;;;;;5017222;28;20433;-85
2022/05/28 10:41:00;;;;;;;1.57;1.17;;;25.50;51.30;;;;;;5024748;28;20450;-86
2022/05/28 10:43:32;;;;;;;1.80;1.33;;;25.50;51.20;;;;;;5034362;28;20430;-86
2022/05/28 10:46:10;;;;;;;1.80;1.40;;;25.40;51.20;;;;;;5029766;28;20421;-84
2022/05/28 10:48:54;;;;;;;1.97;1.27;;;25.40;51.20;;;;;;5035425;28;20964;-86
2022/05/28 10:51:23;;;;;;;2.00;1.20;;;25.40;51.20;;;;;;5028914;28;20482;-86
2022/05/28 10:54:01;;;;;;;3.07;1.50;;;25.40;51.20;;;;;;5032558;28;20454;-85
2022/05/28 10:56:38;;;;;;;2.00;1.23;;;25.40;51.20;;;;;;5059418;28;20430;-86
2022/05/28 10:59:30;;;;;;;2.87;1.30;;;25.40;51.20;;;;;;5021304;28;20410;-86
2022/05/28 11:02:27;;;;;;;2.07;1.50;;;25.40;51.20;;;;;;5043213;28;20419;-86
2022/05/28 11:04:56;;;;;;;2.30;1.30;;;25.40;51.20;;;;;;5059305;28;20487;-86
2022/05/28 11:07:27;;;;;;;1.83;1.27;;;25.40;51.20;;;;;;5060266;28;20422;-86
2022/05/28 11:10:00;;;;;;;2.47;1.30;;;25.40;51.30;;;;;;5030085;28;20439;-85
2022/05/28 11:12:44;;;;;;;1.67;1.43;;;25.40;51.30;;;;;;5032888;28;20990;-85
2022/05/28 11:18:59;;;;;;;2.00;1.20;;;25.40;51.30;;;;;;5024583;28;20410;-85
2022/05/28 11:22:03;;;;;;;1.63;1.30;;;25.40;51.30;;;;;;5036844;28;20443;-86
2022/05/28 11:31:54;;;;;;;3.60;1.27;;;25.40;51.50;;;;;;4930225;28;20439;-85
2022/05/28 11:34:30;;;;;;;2.20;1.10;;;25.30;51.40;;;;;;4925378;29;20471;-85
2022/05/28 11:37:05;;;;;;;2.43;1.20;;;25.30;51.50;;;;;;4927735;29;20582;-85
2022/05/28 11:39:58;;;;;;;2.47;1.77;;;25.30;51.50;;;;;;4910039;29;21009;-85
2022/05/28 11:42:42;;;;;;;2.57;1.47;;;25.30;51.50;;;;;;4914368;29;20442;-85
2022/05/28 11:45:18;;;;;;;1.50;1.20;;;25.40;51.50;;;;;;4931460;29;20438;-84
2022/05/28 11:47:59;;;;;;;2.63;1.20;;;25.40;51.60;;;;;;4930798;29;20454;-85
2022/05/28 11:54:05;;;;;;;1.10;1.00;;;25.40;51.50;;;;;;4873793;29;20469;-85
2022/05/28 11:56:31;;;;;;;1.77;1.33;;;25.40;51.60;;;;;;4874335;29;20885;-85
2022/05/28 11:59:20;;;;;;;2.17;1.40;;;25.40;51.60;;;;;;4858031;29;20458;-86
2022/05/28 12:02:07;;;;;;;1.90;1.27;;;25.40;51.50;;;;;;4862345;29;20193;-86
2022/05/28 12:04:42;;;;;;;1.83;1.00;;;25.40;51.50;;;;;;4925626;28;20489;-86
2022/05/28 12:07:34;;;;;;;2.60;1.20;;;25.40;51.50;;;;;;4969400;28;20493;-86
2022/05/28 12:10:01;;;;;;;3.67;1.27;;;25.40;51.50;;;;;;4967608;28;20417;-86
2022/05/28 12:12:55;;;;;;;2.27;1.23;;;25.40;51.40;;;;;;4971870;28;20463;-86
2022/05/28 12:15:28;;;;;;;2.73;1.27;;;25.40;51.40;;;;;;4952964;29;20421;-86
2022/05/28 12:17:59;;;;;;;1.47;1.20;;;25.40;51.40;;;;;;4952246;29;20434;-86
2022/05/28 12:20:31;;;;;;;2.20;1.37;;;25.40;51.40;;;;;;4969750;29;20422;-86
2022/05/28 12:23:00;;;;;;;1.47;1.10;;;25.40;51.40;;;;;;4969173;29;20422;-86
2022/05/28 12:25:29;;;;;;;1.50;1.10;;;25.40;51.40;;;;;;4956471;29;20440;-85
2022/05/28 12:28:07;;;;;;;2.57;1.30;;;25.40;51.40;;;;;;4972977;29;20445;-86
2022/05/28 12:30:37;;;;;;;2.43;1.20;;;25.40;51.50;;;;;;5009538;28;20434;-85
2022/05/28 12:33:04;;;;;;;2.20;1.30;;;25.40;51.40;;;;;;5048136;28;20467;-85
2022/05/28 12:35:30;;;;;;;1.33;1.10;;;25.40;51.40;;;;;;5036706;28;20411;-84
2022/05/28 12:38:17;;;;;;;2.10;1.40;;;25.40;51.50;;;;;;5048468;28;20435;-85
2022/05/28 12:40:54;;;;;;;2.63;1.57;;;25.40;51.50;;;;;;5032266;28;20641;-85
2022/05/28 12:43:36;;;;;;;1.70;1.40;;;25.40;51.50;;;;;;5026855;28;20414;-86
2022/05/28 12:46:13;;;;;;;1.93;1.10;;;25.40;51.50;;;;;;5038716;28;20433;-86
2022/05/28 12:48:40;;;;;;;2.70;1.23;;;25.40;51.50;;;;;;5062026;28;20435;-86
2022/05/28 12:51:22;;;;;;;1.37;1.20;;;25.40;51.50;;;;;;5029710;28;20469;-86
2022/05/28 12:54:00;;;;;;;2.93;1.40;;;25.40;51.50;;;;;;5029294;28;20473;-86
2022/05/28 12:56:35;;;;;;;2.00;1.00;;;25.40;51.50;;;;;;5030046;28;20925;-86
2022/05/28 12:59:45;;;;;;;1.50;1.10;;;25.40;51.50;;;;;;5030077;28;20426;-86
2022/05/28 13:02:29;;;;;;;1.57;1.27;;;25.40;51.50;;;;;;5005750;28;20416;-85
2022/05/28 13:05:38;;;;;;;1.73;1.10;;;25.40;51.50;;;;;;5007977;28;20513;-85
2022/05/28 13:08:26;;;;;;;1.80;1.00;;;25.40;51.50;;;;;;4974823;28;20517;-85
2022/05/28 13:10:57;;;;;;;1.77;1.10;;;25.40;51.50;;;;;;4987623;28;20424;-85
2022/05/28 13:13:28;;;;;;;1.70;1.00;;;25.40;51.50;;;;;;4986057;28;20461;-85
2022/05/28 13:16:18;;;;;;;1.67;1.00;;;25.40;51.50;;;;;;4990287;28;20516;-84
2022/05/28 13:19:36;;;;;;;2.97;1.50;;;25.40;51.50;;;;;;4989285;28;20467;-85
2022/05/28 13:22:40;;;;;;;1.27;1.00;;;25.40;51.50;;;;;;4971034;28;20441;-85
2022/05/28 13:25:48;;;;;;;1.80;0.93;;;25.40;51.50;;;;;;4968823;28;21074;-86
2022/05/28 13:28:48;;;;;;;1.83;1.00;;;25.40;51.60;;;;;;4970908;28;20453;-86
2022/05/28 13:31:20;;;;;;;3.23;1.13;;;25.40;51.60;;;;;;4960727;28;20433;-86
2022/05/28 13:33:46;;;;;;;1.37;1.00;;;25.30;51.50;;;;;;4987028;28;20460;-87
2022/05/28 13:36:15;;;;;;;1.43;1.07;;;25.30;51.50;;;;;;5006923;28;20475;-87
2022/05/28 13:38:47;;;;;;;2.33;1.10;;;25.40;51.60;;;;;;5010703;28;20420;-87
2022/05/28 13:41:18;;;;;;;2.00;1.10;;;25.30;51.50;;;;;;5009960;28;20429;-86
2022/05/28 13:43:50;;;;;;;1.93;1.00;;;25.40;51.60;;;;;;5009189;28;20520;-85
2022/05/28 13:46:17;;;;;;;2.60;1.13;;;25.40;51.60;;;;;;5009357;28;20511;-85